createdAt,value
2019-05-20T00:00:18.571Z,52.10
2019-05-20T00:01:18.543Z,43.50
2019-05-20T00:02:24.661Z,52.80
2019-05-20T00:03:19.534Z,59.10
2019-05-20T00:04:18.533Z,58.60
2019-05-20T00:05:18.521Z,62.10
2019-05-20T00:06:18.481Z,58.40
2019-05-20T00:07:18.504Z,60.30
2019-05-20T00:08:18.473Z,58.30
2019-05-20T00:09:18.501Z,60.00
2019-05-20T00:10:18.457Z,59.50
2019-05-20T00:11:18.438Z,62.00
2019-05-20T00:12:18.430Z,57.20
2019-05-20T00:13:18.420Z,62.10
2019-05-20T00:14:18.400Z,61.40
2019-05-20T00:15:18.393Z,59.40
2019-05-20T00:16:18.368Z,60.00
2019-05-20T00:17:18.389Z,55.90
2019-05-20T00:18:18.357Z,56.50
2019-05-20T00:19:18.345Z,61.20
2019-05-20T00:20:18.337Z,60.10
2019-05-20T00:21:18.318Z,58.10
2019-05-20T00:22:18.315Z,61.90
2019-05-20T00:23:18.326Z,57.50
2019-05-20T00:24:18.319Z,59.60
2019-05-20T00:25:18.274Z,60.30
2019-05-20T00:26:18.265Z,56.10
2019-05-20T00:27:18.269Z,55.90
2019-05-20T00:28:18.264Z,55.90
2019-05-20T00:29:18.245Z,51.00
2019-05-20T00:30:18.246Z,50.50
2019-05-20T00:31:18.221Z,46.40
2019-05-20T00:32:18.216Z,47.40
2019-05-20T00:33:18.213Z,46.00
2019-05-20T00:34:32.711Z,45.80
2019-05-20T00:35:19.242Z,43.30
2019-05-20T00:36:18.181Z,44.80
2019-05-20T00:37:18.150Z,46.70
2019-05-20T00:38:18.152Z,43.50
2019-05-20T00:39:18.119Z,44.70
2019-05-20T00:40:18.129Z,44.90
2019-05-20T00:41:18.107Z,46.70
2019-05-20T00:42:18.101Z,45.10
2019-05-20T00:43:18.112Z,45.10
2019-05-20T00:44:18.081Z,45.80
2019-05-20T00:45:18.059Z,44.20
2019-05-20T00:46:18.047Z,46.00
2019-05-20T00:47:18.047Z,46.30
2019-05-20T00:48:18.058Z,46.60
2019-05-20T00:49:18.039Z,51.40
2019-05-20T00:50:18.035Z,52.80
2019-05-20T00:51:18.015Z,51.80
2019-05-20T00:52:17.997Z,49.50
2019-05-20T00:53:17.964Z,48.50
2019-05-20T00:54:17.974Z,52.80
2019-05-20T00:55:17.954Z,54.40
2019-05-20T00:56:17.953Z,52.90
2019-05-20T00:57:17.957Z,53.20
2019-05-20T00:58:17.921Z,53.40
2019-05-20T00:59:17.913Z,55.50
2019-05-20T01:00:17.932Z,53.90
2019-05-20T01:01:17.910Z,56.80
2019-05-20T01:02:17.904Z,55.90
2019-05-20T01:03:17.862Z,57.10
2019-05-20T01:04:17.851Z,56.70
2019-05-20T01:05:17.860Z,54.70
2019-05-20T01:06:17.829Z,59.00
2019-05-20T01:07:17.819Z,62.80
2019-05-20T01:08:17.811Z,67.10
2019-05-20T01:09:17.804Z,59.30
2019-05-20T01:10:17.827Z,62.50
2019-05-20T01:11:17.805Z,59.90
2019-05-20T01:12:17.768Z,60.70
2019-05-20T01:13:17.757Z,56.80
2019-05-20T01:14:17.746Z,58.00
2019-05-20T01:15:17.773Z,59.40
2019-05-20T01:16:17.761Z,61.00
2019-05-20T01:17:17.715Z,60.90
2019-05-20T01:18:17.716Z,59.00
2019-05-20T01:19:17.694Z,61.20
2019-05-20T01:20:17.716Z,61.60
2019-05-20T01:21:17.664Z,59.90
2019-05-20T01:22:17.661Z,62.60
2019-05-20T01:23:17.674Z,65.90
2019-05-20T01:24:17.634Z,63.70
2019-05-20T01:25:17.626Z,63.20
2019-05-20T01:26:17.633Z,60.80
2019-05-20T01:27:17.611Z,64.40
2019-05-20T01:28:17.613Z,62.90
2019-05-20T01:29:17.582Z,65.00
2019-05-20T01:30:17.571Z,65.20
2019-05-20T01:31:18.110Z,62.50
2019-05-20T01:32:17.554Z,61.90
2019-05-20T01:33:17.570Z,64.30
2019-05-20T01:34:18.149Z,66.30
2019-05-20T01:35:17.517Z,62.30
2019-05-20T01:36:17.519Z,59.50
2019-05-20T01:37:17.519Z,57.70
2019-05-20T01:38:17.511Z,56.90
2019-05-20T01:39:17.496Z,63.60
2019-05-20T01:40:17.470Z,61.10
2019-05-20T01:41:17.467Z,60.20
2019-05-20T01:42:17.455Z,62.10
2019-05-20T01:43:17.427Z,57.80
2019-05-20T01:44:17.415Z,57.70
2019-05-20T01:45:17.427Z,63.00
2019-05-20T01:46:17.428Z,65.00
2019-05-20T01:47:17.395Z,65.70
2019-05-20T01:48:17.373Z,66.10
2019-05-20T01:49:17.385Z,62.50
2019-05-20T01:50:17.353Z,59.20
2019-05-20T01:51:17.357Z,59.60
2019-05-20T01:52:17.333Z,57.90
2019-05-20T01:53:17.335Z,66.10
2019-05-20T01:54:17.312Z,62.40
2019-05-20T01:55:17.304Z,63.60
2019-05-20T01:56:17.311Z,63.80
2019-05-20T01:57:17.300Z,66.10
2019-05-20T01:58:17.321Z,70.40
2019-05-20T01:59:17.259Z,70.10
2019-05-20T02:00:17.261Z,67.60
2019-05-20T02:01:17.240Z,66.20
2019-05-20T02:02:17.228Z,62.90
2019-05-20T02:03:30.279Z,74.30
2019-05-20T02:04:18.222Z,77.60
2019-05-20T02:05:17.190Z,72.90
2019-05-20T02:06:17.183Z,74.70
2019-05-20T02:07:17.188Z,72.00
2019-05-20T02:08:17.183Z,77.60
2019-05-20T02:09:17.169Z,83.50
2019-05-20T02:10:17.146Z,83.30
2019-05-20T02:11:17.652Z,77.40
2019-05-20T02:12:17.158Z,83.00
2019-05-20T02:13:17.135Z,85.20
2019-05-20T02:14:17.134Z,81.90
2019-05-20T02:15:17.084Z,88.50
2019-05-20T02:16:17.077Z,84.20
2019-05-20T02:17:17.092Z,95.40
2019-05-20T02:18:17.052Z,93.00
2019-05-20T02:19:17.051Z,87.70
2019-05-20T02:20:17.031Z,89.90
2019-05-20T02:21:17.021Z,81.90
2019-05-20T02:22:17.022Z,79.80
2019-05-20T02:23:16.999Z,77.80
2019-05-20T02:24:17.000Z,72.40
2019-05-20T02:25:16.991Z,72.50
2019-05-20T02:26:16.975Z,72.90
2019-05-20T02:27:16.967Z,71.00
2019-05-20T02:28:16.940Z,68.60
2019-05-20T02:29:16.931Z,69.10
2019-05-20T02:30:16.943Z,68.80
2019-05-20T02:31:16.970Z,65.70
2019-05-20T02:32:16.934Z,67.50
2019-05-20T02:33:16.906Z,67.50
2019-05-20T02:34:16.878Z,63.30
2019-05-20T02:35:16.879Z,62.30
2019-05-20T02:36:16.886Z,66.70
2019-05-20T02:37:16.872Z,64.10
2019-05-20T02:38:16.845Z,62.90
2019-05-20T02:39:16.887Z,69.30
2019-05-20T02:40:16.832Z,62.00
2019-05-20T02:41:16.835Z,66.40
2019-05-20T02:42:16.835Z,72.20
2019-05-20T02:43:16.784Z,73.20
2019-05-20T02:44:16.792Z,78.80
2019-05-20T02:45:16.766Z,82.10
2019-05-20T02:46:16.762Z,81.30
2019-05-20T02:47:16.742Z,74.80
2019-05-20T02:48:16.765Z,79.70
2019-05-20T02:49:16.729Z,82.70
2019-05-20T02:50:16.710Z,77.50
2019-05-20T02:51:16.718Z,77.20
2019-05-20T02:52:16.691Z,78.90
2019-05-20T02:53:16.691Z,77.60
2019-05-20T02:54:16.662Z,73.50
2019-05-20T02:55:16.671Z,76.80
2019-05-20T02:56:16.647Z,77.00
2019-05-20T02:57:16.628Z,77.00
2019-05-20T02:58:16.658Z,74.70
2019-05-20T02:59:16.629Z,75.60
2019-05-20T03:00:16.615Z,71.90
2019-05-20T03:01:16.599Z,77.80
2019-05-20T03:02:16.606Z,75.80
2019-05-20T03:03:16.917Z,77.50
2019-05-20T03:04:16.559Z,81.00
2019-05-20T03:05:16.558Z,79.90
2019-05-20T03:06:16.535Z,74.30
2019-05-20T03:07:16.525Z,71.30
2019-05-20T03:08:16.540Z,71.60
2019-05-20T03:09:16.512Z,77.40
2019-05-20T03:10:16.514Z,75.30
2019-05-20T03:11:16.492Z,78.20
2019-05-20T03:12:16.488Z,77.60
2019-05-20T03:13:16.479Z,76.60
2019-05-20T03:14:16.451Z,74.10
2019-05-20T03:15:16.463Z,73.70
2019-05-20T03:16:16.445Z,68.00
2019-05-20T03:17:16.458Z,67.90
2019-05-20T03:18:16.419Z,69.20
2019-05-20T03:19:37.408Z,68.40
2019-05-20T03:20:16.411Z,70.20
2019-05-20T03:21:16.381Z,69.50
2019-05-20T03:22:16.363Z,76.70
2019-05-20T03:23:16.348Z,71.10
2019-05-20T03:24:16.351Z,77.70
2019-05-20T03:25:16.349Z,75.00
2019-05-20T03:26:16.329Z,77.10
2019-05-20T03:27:16.307Z,71.60
2019-05-20T03:28:16.305Z,69.20
2019-05-20T03:29:16.296Z,72.30
2019-05-20T03:30:16.313Z,76.40
2019-05-20T03:31:16.276Z,85.40
2019-05-20T03:32:16.286Z,83.90
2019-05-20T03:33:16.262Z,81.50
2019-05-20T03:34:42.114Z,83.90
2019-05-20T03:35:17.242Z,88.20
2019-05-20T03:36:16.224Z,92.60
2019-05-20T03:37:16.203Z,88.90
2019-05-20T03:38:16.210Z,88.10
2019-05-20T03:39:16.206Z,85.00
2019-05-20T03:40:16.261Z,84.20
2019-05-20T03:41:16.167Z,86.00
2019-05-20T03:42:16.156Z,92.10
2019-05-20T03:43:16.157Z,93.30
2019-05-20T03:44:16.131Z,85.90
2019-05-20T03:45:16.121Z,96.70
2019-05-20T03:46:16.102Z,98.20
2019-05-20T03:47:16.098Z,91.80
2019-05-20T03:48:16.091Z,86.90
2019-05-20T03:49:16.073Z,91.30
2019-05-20T03:50:16.099Z,92.30
2019-05-20T03:51:16.097Z,90.10
2019-05-20T03:52:16.045Z,95.10
2019-05-20T03:53:16.047Z,110.60
2019-05-20T03:54:16.021Z,93.30
2019-05-20T03:55:16.018Z,91.60
2019-05-20T03:56:16.034Z,94.20
2019-05-20T03:57:15.986Z,96.50
2019-05-20T03:58:15.977Z,93.50
2019-05-20T03:59:15.984Z,92.10
2019-05-20T04:00:15.965Z,90.20
2019-05-20T04:01:15.965Z,90.20
2019-05-20T04:02:15.934Z,97.00
2019-05-20T04:03:15.928Z,100.50
2019-05-20T04:04:15.904Z,96.90
2019-05-20T04:05:15.914Z,100.00
2019-05-20T04:06:15.918Z,86.40
2019-05-20T04:07:15.872Z,95.10
2019-05-20T04:08:15.863Z,92.60
2019-05-20T04:09:15.891Z,101.60
2019-05-20T04:10:15.870Z,104.60
2019-05-20T04:11:15.844Z,103.20
2019-05-20T04:12:15.837Z,106.80
2019-05-20T04:13:15.869Z,109.00
2019-05-20T04:14:15.876Z,107.50
2019-05-20T04:15:15.810Z,111.00
2019-05-20T04:16:15.790Z,103.50
2019-05-20T04:17:15.789Z,105.00
2019-05-20T04:18:15.760Z,113.80
2019-05-20T04:19:15.769Z,112.50
2019-05-20T04:20:15.746Z,103.40
2019-05-20T04:21:15.737Z,105.80
2019-05-20T04:22:15.719Z,104.70
2019-05-20T04:23:15.723Z,117.40
2019-05-20T04:24:15.708Z,119.20
2019-05-20T04:25:15.705Z,108.10
2019-05-20T04:26:15.686Z,106.00
2019-05-20T04:27:15.661Z,101.30
2019-05-20T04:28:15.705Z,99.40
2019-05-20T04:29:15.639Z,96.80
2019-05-20T04:30:18.895Z,101.40
2019-05-20T04:31:15.625Z,95.60
2019-05-20T04:32:15.612Z,97.20
2019-05-20T04:33:15.613Z,109.40
2019-05-20T04:34:15.599Z,121.40
2019-05-20T04:35:21.994Z,118.70
2019-05-20T04:36:16.573Z,126.40
2019-05-20T04:37:15.562Z,140.90
2019-05-20T04:38:15.540Z,138.00
2019-05-20T04:39:15.535Z,124.60
2019-05-20T04:40:15.539Z,120.10
2019-05-20T04:41:15.548Z,144.30
2019-05-20T04:42:15.503Z,126.70
2019-05-20T04:43:15.491Z,137.00
2019-05-20T04:44:15.480Z,146.70
2019-05-20T04:45:15.487Z,128.50
2019-05-20T04:46:15.477Z,124.90
2019-05-20T04:47:15.446Z,117.80
2019-05-20T04:48:15.432Z,115.10
2019-05-20T04:49:15.427Z,113.10
2019-05-20T04:50:15.420Z,101.30
2019-05-20T04:51:15.406Z,104.30
2019-05-20T04:52:15.389Z,101.70
2019-05-20T04:53:15.417Z,102.50
2019-05-20T04:54:15.368Z,100.40
2019-05-20T04:55:15.366Z,99.30
2019-05-20T04:56:15.395Z,85.20
2019-05-20T04:57:15.351Z,87.50
2019-05-20T04:58:15.331Z,80.80
2019-05-20T04:59:15.315Z,96.90
2019-05-20T05:00:15.323Z,85.90
2019-05-20T05:01:15.302Z,89.30
2019-05-20T05:02:15.320Z,90.80
2019-05-20T05:03:15.290Z,92.20
2019-05-20T05:04:15.292Z,99.90
2019-05-20T05:05:15.250Z,95.40
2019-05-20T05:06:15.272Z,94.70
2019-05-20T05:07:15.231Z,87.20
2019-05-20T05:08:15.219Z,81.00
2019-05-20T05:09:15.767Z,76.20
2019-05-20T05:10:15.199Z,75.80
2019-05-20T05:11:15.192Z,72.40
2019-05-20T05:12:15.202Z,86.00
2019-05-20T05:13:15.193Z,73.30
2019-05-20T05:14:15.158Z,88.30
2019-05-20T05:15:15.145Z,98.40
2019-05-20T05:16:15.135Z,96.70
2019-05-20T05:17:15.161Z,85.60
2019-05-20T05:18:15.126Z,82.00
2019-05-20T05:19:15.095Z,90.50
2019-05-20T05:20:18.150Z,78.50
2019-05-20T05:21:15.094Z,77.10
2019-05-20T05:22:15.118Z,80.70
2019-05-20T05:23:15.074Z,101.20
2019-05-20T05:24:15.047Z,104.70
2019-05-20T05:25:15.053Z,102.20
2019-05-20T05:26:15.043Z,102.10
2019-05-20T05:27:15.012Z,98.30
2019-05-20T05:28:15.041Z,89.10
2019-05-20T05:29:15.019Z,83.20
2019-05-20T05:30:14.997Z,88.40
2019-05-20T05:31:14.971Z,91.50
2019-05-20T05:32:14.969Z,86.60
2019-05-20T05:33:14.961Z,87.20
2019-05-20T05:34:14.949Z,79.80
2019-05-20T05:35:14.932Z,85.20
2019-05-20T05:36:14.938Z,92.80
2019-05-20T05:37:14.909Z,92.80
2019-05-20T05:38:14.911Z,95.00
2019-05-20T05:39:14.899Z,98.90
2019-05-20T05:40:14.870Z,101.70
2019-05-20T05:41:14.857Z,99.00
2019-05-20T05:42:14.856Z,88.80
2019-05-20T05:43:14.845Z,80.30
2019-05-20T05:44:14.846Z,72.00
2019-05-20T05:45:14.834Z,67.50
2019-05-20T05:46:14.806Z,56.20
2019-05-20T05:47:14.796Z,58.20
2019-05-20T05:48:14.794Z,62.50
2019-05-20T05:49:14.823Z,55.20
2019-05-20T05:50:14.776Z,52.70
2019-05-20T05:51:14.753Z,52.60
2019-05-20T05:52:14.746Z,56.60
2019-05-20T05:53:14.753Z,62.30
2019-05-20T05:54:14.724Z,58.00
2019-05-20T05:55:14.713Z,54.20
2019-05-20T05:56:14.711Z,57.10
2019-05-20T05:57:14.702Z,64.10
2019-05-20T05:58:14.693Z,60.90
2019-05-20T05:59:14.692Z,56.60
2019-05-20T06:00:14.664Z,64.20
2019-05-20T06:01:14.661Z,73.70
2019-05-20T06:02:14.651Z,73.60
2019-05-20T06:03:14.654Z,74.40
2019-05-20T06:04:14.611Z,73.60
2019-05-20T06:05:14.638Z,73.10
2019-05-20T06:06:14.599Z,77.80
2019-05-20T06:07:14.595Z,79.30
2019-05-20T06:08:14.567Z,88.90
2019-05-20T06:09:14.578Z,85.00
2019-05-20T06:10:14.546Z,81.30
2019-05-20T06:11:14.539Z,72.60
2019-05-20T06:12:14.536Z,82.50
2019-05-20T06:13:14.524Z,91.80
2019-05-20T06:14:14.525Z,88.70
2019-05-20T06:15:14.521Z,84.60
2019-05-20T06:16:14.495Z,92.20
2019-05-20T06:17:14.483Z,88.50
2019-05-20T06:18:14.465Z,81.70
2019-05-20T06:19:14.454Z,80.40
2019-05-20T06:20:14.441Z,77.50
2019-05-20T06:21:14.463Z,76.70
2019-05-20T06:22:14.723Z,69.80
2019-05-20T06:23:14.413Z,69.80
2019-05-20T06:24:14.402Z,67.50
2019-05-20T06:25:14.419Z,59.80
2019-05-20T06:26:14.391Z,68.20
2019-05-20T06:27:14.360Z,62.50
2019-05-20T06:28:14.363Z,62.60
2019-05-20T06:29:14.379Z,59.30
2019-05-20T06:30:14.473Z,58.80
2019-05-20T06:31:14.341Z,60.70
2019-05-20T06:32:14.357Z,59.50
2019-05-20T06:33:14.304Z,61.70
2019-05-20T06:34:14.288Z,65.00
2019-05-20T06:35:14.288Z,58.10
2019-05-20T06:36:25.954Z,63.00
2019-05-20T06:37:15.271Z,67.20
2019-05-20T06:38:14.254Z,75.30
2019-05-20T06:39:14.235Z,69.40
2019-05-20T06:40:14.225Z,64.50
2019-05-20T06:41:14.235Z,65.90
2019-05-20T06:42:14.224Z,72.30
2019-05-20T06:43:14.210Z,69.60
2019-05-20T06:44:14.204Z,72.10
2019-05-20T06:45:14.164Z,66.80
2019-05-20T06:46:14.221Z,72.70
2019-05-20T06:47:14.164Z,70.80
2019-05-20T06:48:14.172Z,66.40
2019-05-20T06:49:14.135Z,65.60
2019-05-20T06:50:14.114Z,68.20
2019-05-20T06:51:14.103Z,64.10
2019-05-20T06:52:14.118Z,63.20
2019-05-20T06:53:14.112Z,60.00
2019-05-20T06:54:14.086Z,63.70
2019-05-20T06:55:14.083Z,59.90
2019-05-20T06:56:14.051Z,58.10
2019-05-20T06:57:14.138Z,65.30
2019-05-20T06:58:14.049Z,65.40
2019-05-20T06:59:14.035Z,63.10
2019-05-20T07:00:14.009Z,63.10
2019-05-20T07:01:14.013Z,70.30
2019-05-20T07:02:13.981Z,68.70
2019-05-20T07:03:13.991Z,68.00
2019-05-20T07:04:13.977Z,63.70
2019-05-20T07:05:13.947Z,67.10
2019-05-20T07:06:13.937Z,67.20
2019-05-20T07:07:20.994Z,71.10
2019-05-20T07:08:14.925Z,78.10
2019-05-20T07:09:13.914Z,84.20
2019-05-20T07:10:13.903Z,80.20
2019-05-20T07:11:13.891Z,80.90
2019-05-20T07:12:13.877Z,79.90
2019-05-20T07:13:16.162Z,79.80
2019-05-20T07:14:13.853Z,73.90
2019-05-20T07:15:13.844Z,74.10
2019-05-20T07:16:13.937Z,72.30
2019-05-20T07:17:13.829Z,68.00
2019-05-20T07:18:14.422Z,70.30
2019-05-20T07:19:13.811Z,70.00
2019-05-20T07:20:13.804Z,67.50
2019-05-20T07:21:13.785Z,62.70
2019-05-20T07:22:13.763Z,73.30
2019-05-20T07:23:13.782Z,72.60
2019-05-20T07:24:13.763Z,71.20
2019-05-20T07:25:13.739Z,71.40
2019-05-20T07:26:14.298Z,73.30
2019-05-20T07:27:13.718Z,68.00
2019-05-20T07:28:13.709Z,69.80
2019-05-20T07:29:13.709Z,68.10
2019-05-20T07:30:15.330Z,71.10
2019-05-20T07:31:13.677Z,59.90
2019-05-20T07:32:13.677Z,61.40
2019-05-20T07:33:13.872Z,63.30
2019-05-20T07:34:13.673Z,56.40
2019-05-20T07:35:28.940Z,55.20
2019-05-20T07:36:14.681Z,52.20
2019-05-20T07:37:13.626Z,51.70
2019-05-20T07:38:13.625Z,50.10
2019-05-20T07:39:13.605Z,55.20
2019-05-20T07:40:13.588Z,57.40
2019-05-20T07:41:13.573Z,57.20
2019-05-20T07:42:13.573Z,55.40
2019-05-20T07:43:13.560Z,55.70
2019-05-20T07:44:13.553Z,61.50
2019-05-20T07:45:13.543Z,64.60
2019-05-20T07:46:13.534Z,61.80
2019-05-20T07:47:13.530Z,63.10
2019-05-20T07:48:13.492Z,63.60
2019-05-20T07:49:13.486Z,55.80
2019-05-20T07:50:13.495Z,56.20
2019-05-20T07:51:13.492Z,50.10
2019-05-20T07:52:13.484Z,50.80
2019-05-20T07:53:13.431Z,50.30
2019-05-20T07:54:13.429Z,49.60
2019-05-20T07:55:13.429Z,51.50
2019-05-20T07:56:13.420Z,48.90
2019-05-20T07:57:13.429Z,49.60
2019-05-20T07:58:13.406Z,44.00
2019-05-20T07:59:13.377Z,44.90
2019-05-20T08:00:13.390Z,44.60
2019-05-20T08:01:13.366Z,42.90
2019-05-20T08:02:13.348Z,42.50
2019-05-20T08:03:13.459Z,38.60
2019-05-20T08:04:13.433Z,43.30
2019-05-20T08:05:13.329Z,39.80
2019-05-20T08:06:13.309Z,42.60
2019-05-20T08:07:27.321Z,44.70
2019-05-20T08:08:14.317Z,40.10
2019-05-20T08:09:13.297Z,37.00
2019-05-20T08:10:13.264Z,37.40
2019-05-20T08:11:13.246Z,36.30
2019-05-20T08:12:14.044Z,37.90
2019-05-20T08:13:13.247Z,36.60
2019-05-20T08:14:13.225Z,38.10
2019-05-20T08:15:13.204Z,34.60
2019-05-20T08:16:13.202Z,33.00
2019-05-20T08:17:13.204Z,31.50
2019-05-20T08:18:19.991Z,31.10
2019-05-20T08:19:14.173Z,30.50
2019-05-20T08:20:13.159Z,31.40
2019-05-20T08:21:13.143Z,33.10
2019-05-20T08:22:13.157Z,31.70
2019-05-20T08:23:13.119Z,32.20
2019-05-20T08:24:13.109Z,34.30
2019-05-20T08:25:13.117Z,32.10
2019-05-20T08:26:13.119Z,30.60
2019-05-20T08:27:13.123Z,34.40
2019-05-20T08:28:13.078Z,34.10
2019-05-20T08:29:13.065Z,33.50
2019-05-20T08:30:14.143Z,33.30
2019-05-20T08:31:13.035Z,35.00
2019-05-20T08:32:13.033Z,37.20
2019-05-20T08:33:13.889Z,34.80
2019-05-20T08:34:12.998Z,36.10
2019-05-20T08:35:13.007Z,37.50
2019-05-20T08:36:13.561Z,35.10
2019-05-20T08:37:13.004Z,36.50
2019-05-20T08:38:12.991Z,36.20
2019-05-20T08:39:12.953Z,36.00
2019-05-20T08:40:12.965Z,36.40
2019-05-20T08:41:12.932Z,35.50
2019-05-20T08:42:12.913Z,32.10
2019-05-20T08:43:12.936Z,31.50
2019-05-20T08:44:12.902Z,35.30
2019-05-20T08:45:12.882Z,32.60
2019-05-20T08:46:12.884Z,39.00
2019-05-20T08:47:12.998Z,33.20
2019-05-20T08:48:12.859Z,34.20
2019-05-20T08:49:12.851Z,35.20
2019-05-20T08:50:16.085Z,34.90
2019-05-20T08:51:12.839Z,36.40
2019-05-20T08:52:13.017Z,36.80
2019-05-20T08:53:12.880Z,35.10
2019-05-20T08:54:12.795Z,37.90
2019-05-20T08:55:12.806Z,37.60
2019-05-20T08:56:12.764Z,35.00
2019-05-20T08:57:12.798Z,38.70
2019-05-20T08:58:12.747Z,41.40
2019-05-20T08:59:12.748Z,37.40
2019-05-20T09:00:12.727Z,39.40
2019-05-20T09:01:12.728Z,35.90
2019-05-20T09:02:12.720Z,38.30
2019-05-20T09:03:12.688Z,38.30
2019-05-20T09:04:12.676Z,38.90
2019-05-20T09:05:12.696Z,44.10
2019-05-20T09:06:12.716Z,43.30
2019-05-20T09:07:12.665Z,41.60
2019-05-20T09:08:12.653Z,43.80
2019-05-20T09:09:12.670Z,41.80
2019-05-20T09:10:12.620Z,41.70
2019-05-20T09:11:12.612Z,35.90
2019-05-20T09:12:12.633Z,40.00
2019-05-20T09:13:12.593Z,36.10
2019-05-20T09:14:12.582Z,33.10
2019-05-20T09:15:12.571Z,32.30
2019-05-20T09:16:12.620Z,36.90
2019-05-20T09:17:12.550Z,40.80
2019-05-20T09:18:12.554Z,36.10
2019-05-20T09:19:12.533Z,37.20
2019-05-20T09:20:12.511Z,35.00
2019-05-20T09:21:12.591Z,37.00
2019-05-20T09:22:12.500Z,35.70
2019-05-20T09:23:12.497Z,36.50
2019-05-20T09:24:12.482Z,34.20
2019-05-20T09:25:12.631Z,36.00
2019-05-20T09:26:12.462Z,33.70
2019-05-20T09:27:12.457Z,35.50
2019-05-20T09:28:12.417Z,34.40
2019-05-20T09:29:12.407Z,33.00
2019-05-20T09:30:12.397Z,32.20
2019-05-20T09:31:12.388Z,32.30
2019-05-20T09:32:12.415Z,33.00
2019-05-20T09:33:12.399Z,29.70
2019-05-20T09:34:12.356Z,31.50
2019-05-20T09:35:12.349Z,31.70
2019-05-20T09:36:12.346Z,33.80
2019-05-20T09:37:12.360Z,34.60
2019-05-20T09:38:19.979Z,35.10
2019-05-20T09:39:13.303Z,35.60
2019-05-20T09:40:12.297Z,35.90
2019-05-20T09:41:12.309Z,30.80
2019-05-20T09:42:12.312Z,32.30
2019-05-20T09:43:12.340Z,31.10
2019-05-20T09:44:12.256Z,32.70
2019-05-20T09:45:12.241Z,32.40
2019-05-20T09:46:12.247Z,33.10
2019-05-20T09:47:12.233Z,33.80
2019-05-20T09:48:12.239Z,31.10
2019-05-20T09:49:12.195Z,34.00
2019-05-20T09:50:12.199Z,31.70
2019-05-20T09:51:12.185Z,34.50
2019-05-20T09:52:12.242Z,31.10
2019-05-20T09:53:12.190Z,33.50
2019-05-20T09:54:12.147Z,30.40
2019-05-20T09:55:12.181Z,30.30
2019-05-20T09:56:12.134Z,29.90
2019-05-20T09:57:12.108Z,28.30
2019-05-20T09:58:12.118Z,32.30
2019-05-20T09:59:15.750Z,33.50
2019-05-20T10:00:12.089Z,33.60
2019-05-20T10:01:12.075Z,32.60
2019-05-20T10:02:12.062Z,31.70
2019-05-20T10:03:12.047Z,35.60
2019-05-20T10:04:12.054Z,36.60
2019-05-20T10:05:12.058Z,36.20
2019-05-20T10:06:12.030Z,35.00
2019-05-20T10:07:12.007Z,37.40
2019-05-20T10:08:12.004Z,34.30
2019-05-20T10:09:12.686Z,32.60
2019-05-20T10:10:11.972Z,33.90
2019-05-20T10:11:11.962Z,33.40
2019-05-20T10:12:11.966Z,31.30
2019-05-20T10:13:12.052Z,30.50
2019-05-20T10:14:11.941Z,29.30
2019-05-20T10:15:11.911Z,31.00
2019-05-20T10:16:11.921Z,27.40
2019-05-20T10:17:11.899Z,26.90
2019-05-20T10:18:11.889Z,27.00
2019-05-20T10:19:11.881Z,29.60
2019-05-20T10:20:11.915Z,28.80
2019-05-20T10:21:11.854Z,26.50
2019-05-20T10:22:11.841Z,32.00
2019-05-20T10:23:15.619Z,32.40
2019-05-20T10:24:11.832Z,31.70
2019-05-20T10:25:11.806Z,32.90
2019-05-20T10:26:12.746Z,29.80
2019-05-20T10:27:11.807Z,30.90
2019-05-20T10:28:11.775Z,32.30
2019-05-20T10:29:11.797Z,29.80
2019-05-20T10:30:11.756Z,33.60
2019-05-20T10:31:11.748Z,29.00
2019-05-20T10:32:11.736Z,30.20
2019-05-20T10:33:11.738Z,32.30
2019-05-20T10:34:11.732Z,32.80
2019-05-20T10:35:11.712Z,33.10
2019-05-20T10:36:11.735Z,32.00
2019-05-20T10:37:11.739Z,33.40
2019-05-20T10:38:11.694Z,38.40
2019-05-20T10:39:11.696Z,31.50
2019-05-20T10:40:11.655Z,31.60
2019-05-20T10:41:11.661Z,29.90
2019-05-20T10:42:11.631Z,32.00
2019-05-20T10:43:11.623Z,31.40
2019-05-20T10:44:11.619Z,29.60
2019-05-20T10:45:11.590Z,31.90
2019-05-20T10:46:11.591Z,33.40
2019-05-20T10:47:11.579Z,34.50
2019-05-20T10:48:11.564Z,35.10
2019-05-20T10:49:11.549Z,32.80
2019-05-20T10:50:11.538Z,34.00
2019-05-20T10:51:11.530Z,36.00
2019-05-20T10:52:11.518Z,35.80
2019-05-20T10:53:11.510Z,32.10
2019-05-20T10:54:11.514Z,37.30
2019-05-20T10:55:11.479Z,33.10
2019-05-20T10:56:11.779Z,34.60
2019-05-20T10:57:11.474Z,32.50
2019-05-20T10:58:11.448Z,36.30
2019-05-20T10:59:12.357Z,35.50
2019-05-20T11:00:11.427Z,29.60
2019-05-20T11:01:11.424Z,32.50
2019-05-20T11:02:11.428Z,30.70
2019-05-20T11:03:11.414Z,28.80
2019-05-20T11:04:11.392Z,31.10
2019-05-20T11:05:11.423Z,32.70
2019-05-20T11:06:11.391Z,30.90
2019-05-20T11:07:11.370Z,29.30
2019-05-20T11:08:11.367Z,28.60
2019-05-20T11:09:13.915Z,33.50
2019-05-20T11:10:11.324Z,31.30
2019-05-20T11:11:14.091Z,29.40
2019-05-20T11:12:11.301Z,31.60
2019-05-20T11:13:11.312Z,29.10
2019-05-20T11:14:11.291Z,26.90
2019-05-20T11:15:11.269Z,30.50
2019-05-20T11:16:11.281Z,30.60
2019-05-20T11:17:14.881Z,27.10
2019-05-20T11:18:11.239Z,31.60
2019-05-20T11:19:11.224Z,28.10
2019-05-20T11:20:11.229Z,38.50
2019-05-20T11:21:11.209Z,32.80
2019-05-20T11:22:11.198Z,30.80
2019-05-20T11:23:11.179Z,29.50
2019-05-20T11:24:11.183Z,29.30
2019-05-20T11:25:11.195Z,32.10
2019-05-20T11:26:11.157Z,29.00
2019-05-20T11:27:11.156Z,31.10
2019-05-20T11:28:12.005Z,34.30
2019-05-20T11:29:11.124Z,28.50
2019-05-20T11:30:11.166Z,29.80
2019-05-20T11:31:11.115Z,30.80
2019-05-20T11:32:11.084Z,32.20
2019-05-20T11:33:11.093Z,30.00
2019-05-20T11:34:11.085Z,30.30
2019-05-20T11:35:11.055Z,32.60
2019-05-20T11:36:11.084Z,27.30
2019-05-20T11:37:11.033Z,29.00
2019-05-20T11:38:11.034Z,32.20
2019-05-20T11:39:11.041Z,30.60
2019-05-20T11:40:11.944Z,31.70
2019-05-20T11:41:10.990Z,31.30
2019-05-20T11:42:11.603Z,30.20
2019-05-20T11:43:10.983Z,27.10
2019-05-20T11:44:12.035Z,27.80
2019-05-20T11:45:10.949Z,25.30
2019-05-20T11:46:10.950Z,28.10
2019-05-20T11:47:10.943Z,30.00
2019-05-20T11:48:10.964Z,30.60
2019-05-20T11:49:11.617Z,28.40
2019-05-20T11:50:10.905Z,29.70
2019-05-20T11:51:10.889Z,30.50
2019-05-20T11:52:10.888Z,29.80
2019-05-20T11:53:10.871Z,30.10
2019-05-20T11:54:10.847Z,33.30
2019-05-20T11:55:10.846Z,33.40
2019-05-20T11:56:12.095Z,34.20
2019-05-20T11:57:10.834Z,33.10
2019-05-20T11:58:15.722Z,33.40
2019-05-20T11:59:11.795Z,35.30
2019-05-20T12:00:10.784Z,36.80
2019-05-20T12:01:10.774Z,38.20
2019-05-20T12:02:10.789Z,36.70
2019-05-20T12:03:10.757Z,34.50
2019-05-20T12:04:10.750Z,35.60
2019-05-20T12:05:10.733Z,38.00
2019-05-20T12:06:10.767Z,38.10
2019-05-20T12:07:10.729Z,36.30
2019-05-20T12:08:10.723Z,36.70
2019-05-20T12:09:10.698Z,33.30
2019-05-20T12:10:10.776Z,35.80
2019-05-20T12:11:10.673Z,34.80
2019-05-20T12:12:10.677Z,36.40
2019-05-20T12:13:10.655Z,36.40
2019-05-20T12:14:10.641Z,34.50
2019-05-20T12:15:10.640Z,37.10
2019-05-20T12:16:10.612Z,34.00
2019-05-20T12:17:10.611Z,37.30
2019-05-20T12:18:10.670Z,36.20
2019-05-20T12:19:10.596Z,37.40
2019-05-20T12:20:12.157Z,34.40
2019-05-20T12:21:10.559Z,35.50
2019-05-20T12:22:10.562Z,35.20
2019-05-20T12:23:10.548Z,36.70
2019-05-20T12:24:10.527Z,36.90
2019-05-20T12:25:10.544Z,39.50
2019-05-20T12:26:10.506Z,40.40
2019-05-20T12:27:10.527Z,42.00
2019-05-20T12:28:10.495Z,40.00
2019-05-20T12:29:10.475Z,39.10
2019-05-20T12:30:10.505Z,39.80
2019-05-20T12:31:10.454Z,40.70
2019-05-20T12:32:10.454Z,37.70
2019-05-20T12:33:18.568Z,38.60
2019-05-20T12:34:11.429Z,38.80
2019-05-20T12:35:10.490Z,37.70
2019-05-20T12:36:10.412Z,37.60
2019-05-20T12:37:10.419Z,37.40
2019-05-20T12:38:10.384Z,38.20
2019-05-20T12:39:10.377Z,38.60
2019-05-20T12:40:10.362Z,41.10
2019-05-20T12:41:10.351Z,42.40
2019-05-20T12:42:10.605Z,39.30
2019-05-20T12:43:10.331Z,40.80
2019-05-20T12:44:12.888Z,41.10
2019-05-20T12:45:10.310Z,39.00
2019-05-20T12:46:10.335Z,41.40
2019-05-20T12:47:10.290Z,42.30
2019-05-20T12:48:10.280Z,37.60
2019-05-20T12:49:10.416Z,35.80
2019-05-20T12:50:10.265Z,38.80
2019-05-20T12:51:10.258Z,36.20